Map

Track Data

SID SEASON NUMBER BASIN SUBBASIN NAME ISO_TIME NATURE LAT LON WMO_WIND WMO_PRES WMO_AGENCY TRACK_TYPE DIST2LAND LANDFALL IFLAG USA_AGENCY USA_ATCF_ID USA_LAT USA_LON USA_RECORD USA_STATUS USA_WIND USA_PRES USA_SSHS USA_R34_NE USA_R34_SE USA_R34_SW USA_R34_NW USA_R50_NE USA_R50_SE USA_R50_SW USA_R50_NW USA_R64_NE USA_R64_SE USA_R64_SW USA_R64_NW USA_POCI USA_ROCI USA_RMW USA_EYE TOKYO_LAT TOKYO_LON TOKYO_GRADE TOKYO_WIND TOKYO_PRES TOKYO_R50_DIR TOKYO_R50_LONG TOKYO_R50_SHORT TOKYO_R30_DIR TOKYO_R30_LONG TOKYO_R30_SHORT TOKYO_LAND CMA_LAT CMA_LON CMA_CAT CMA_WIND CMA_PRES HKO_LAT HKO_LON HKO_CAT HKO_WIND HKO_PRES NEWDELHI_LAT NEWDELHI_LON NEWDELHI_GRADE NEWDELHI_WIND NEWDELHI_PRES NEWDELHI_CI NEWDELHI_DP NEWDELHI_POCI REUNION_LAT REUNION_LON REUNION_TYPE REUNION_WIND REUNION_PRES REUNION_TNUM REUNION_CI REUNION_RMW REUNION_R34_NE REUNION_R34_SE REUNION_R34_SW REUNION_R34_NW REUNION_R50_NE REUNION_R50_SE REUNION_R50_SW REUNION_R50_NW REUNION_R64_NE REUNION_R64_SE REUNION_R64_SW REUNION_R64_NW BOM_LAT BOM_LON BOM_TYPE BOM_WIND BOM_PRES BOM_TNUM BOM_CI BOM_RMW BOM_R34_NE BOM_R34_SE BOM_R34_SW BOM_R34_NW BOM_R50_NE BOM_R50_SE BOM_R50_SW BOM_R50_NW BOM_R64_NE BOM_R64_SE BOM_R64_SW BOM_R64_NW BOM_ROCI BOM_POCI BOM_EYE BOM_POS_METHOD BOM_PRES_METHOD NADI_LAT NADI_LON NADI_CAT NADI_WIND NADI_PRES WELLINGTON_LAT WELLINGTON_LON WELLINGTON_WIND WELLINGTON_PRES DS824_LAT DS824_LON DS824_STAGE DS824_WIND DS824_PRES TD9636_LAT TD9636_LON TD9636_STAGE TD9636_WIND TD9636_PRES TD9635_LAT TD9635_LON TD9635_WIND TD9635_PRES TD9635_ROCI NEUMANN_LAT NEUMANN_LON NEUMANN_CLASS NEUMANN_WIND NEUMANN_PRES MLC_LAT MLC_LON MLC_CLASS MLC_WIND MLC_PRES USA_GUST BOM_GUST BOM_GUST_PER REUNION_GUST REUNION_GUST_PER USA_SEAHGT USA_SEARAD_NE USA_SEARAD_SE USA_SEARAD_SW USA_SEARAD_NW STORM_SPEED STORM_DIR
1942269N17087 1942 57 NI BB NOT_NAMED 1942-09-26 00:00:00 TS 17.4000 86.5000 main 254 241 _________O____ -1 17.4000 86.5000 TC 30 4 6
1942269N17087 1942 57 NI BB NOT_NAMED 1942-09-26 03:00:00 TS 17.6083 86.5050 main 241 222 _________PO___ -1 17.7125 86.5075 TC 30 17.4000 86.5000 1 5 0
1942269N17087 1942 57 NI BB NOT_NAMED 1942-09-26 06:00:00 TS 17.8700 86.4987 main 222 203 _________OP___ -1 18.0000 86.5000 TC 30 17.6750 86.4969 1 5 356
1942269N17087 1942 57 NI BB NOT_NAMED 1942-09-26 09:00:00 TS 18.1215 86.4736 main 203 179 _________PP___ -1 18.2500 86.4650 TC 30 17.9501 86.4850 1 5 352
1942269N17087 1942 57 NI BB NOT_NAMED 1942-09-26 12:00:00 TS 18.3625 86.4278 main 168 148 _________OP___ -1 18.5000 86.4000 TC 30 18.2251 86.4557 1 5 349
1942269N17087 1942 57 NI BB NOT_NAMED 1942-09-26 15:00:00 TS 18.6500 86.3612 main 148 113 _________PO___ -1 18.8000 86.3224 TC 30 18.5000 86.4000 1 6 344
1942269N17087 1942 57 NI BB NOT_NAMED 1942-09-26 18:00:00 TS 18.9374 86.2551 main 113 74 _________OP___ -1 19.1000 86.2000 TC 30 18.7749 86.3102 1 6 336
1942269N17087 1942 57 NI BB NOT_NAMED 1942-09-26 21:00:00 TS 19.1999 86.1060 main 74 45 _________PP___ -1 19.3500 86.0299 TC 30 19.0498 86.1822 1 6 328
1942269N17087 1942 57 NI BB NOT_NAMED 1942-09-27 00:00:00 TS 19.4624 85.9066 main 35 11 _________OP___ -1 19.6000 85.8000 TC 30 19.3248 86.0131 1 7 323
1942269N17087 1942 57 NI BB NOT_NAMED 1942-09-27 03:00:00 TS 19.7500 85.6575 main 0 0 _________PO___ -1 19.9000 85.5150 TC 30 19.6000 85.8000 1 8 318
1942269N17087 1942 57 NI BB NOT_NAMED 1942-09-27 06:00:00 TS 20.0377 85.3616 main 0 0 _________OP___ -1 20.2000 85.2000 TC 30 19.8753 85.5231 1 8 314
1942269N17087 1942 57 NI BB NOT_NAMED 1942-09-27 09:00:00 TS 20.3040 85.0464 main 0 0 _________PP___ -1 20.4575 84.8849 TC 30 20.1505 85.2079 1 8 312
1942269N17087 1942 57 NI BB NOT_NAMED 1942-09-27 12:00:00 TS 20.5627 84.7444 main 0 0 _________OP___ -1 20.7000 84.6000 TC 30 20.4254 84.8887 1 7 315
1942269N17087 1942 57 NI BB NOT_NAMED 1942-09-27 15:00:00 TS 20.8212 84.4887 main 0 0 _________PO___ -1 20.9424 84.3774 TC 30 20.7000 84.6000 1 7 319
1942269N17087 1942 57 NI BB NOT_NAMED 1942-09-27 18:00:00 TS 21.0732 84.2722 main 0 0 _________OP___ -1 21.2000 84.2000 TC 30 20.9464 84.3445 1 6 323
1942269N17087 1942 57 NI BB NOT_NAMED 1942-09-27 21:00:00 TS 21.3337 84.0715 main 0 0 _________PP___ -1 21.4700 84.0126 TC 30 21.1974 84.1304 1 6 331
1942269N17087 1942 57 NI BB NOT_NAMED 1942-09-28 00:00:00 TS 21.6373 83.9380 main 0 0 _________OP___ -1 21.8000 83.9000 TC 30 21.4746 83.9761 1 7 347
1942269N17087 1942 57 NI BB NOT_NAMED 1942-09-28 03:00:00 TS 22.0137 83.9025 main 0 0 _________PO___ -1 22.2275 83.9049 TC 30 21.8000 83.9000 1 8 1
1942269N17087 1942 57 NI BB NOT_NAMED 1942-09-28 06:00:00 TS 22.4538 83.9521 main 0 0 _________OP___ -1 22.7000 84.0000 TC 30 22.2077 83.9042 1 9 9
1942269N17087 1942 57 NI BB NOT_NAMED 1942-09-28 09:00:00 TS 22.9099 84.0572 main 0 0 _________PP___ -1 23.1575 84.1275 TC 30 22.6623 83.9869 1 10 15
1942269N17087 1942 57 NI BB NOT_NAMED 1942-09-28 12:00:00 TS 23.3679 84.2131 main 0 0 _________OP___ -1 23.6000 84.3000 TC 30 23.1359 84.1263 1 10 19
1942269N17087 1942 57 NI BB NOT_NAMED 1942-09-28 15:00:00 TS 23.8037 84.3963 main 0 0 _________PO___ -1 24.0075 84.4926 TC 30 23.6000 84.3000 1 9 22
1942269N17087 1942 57 NI BB NOT_NAMED 1942-09-28 18:00:00 TS 24.1902 84.5794 main 0 0 _________OP___ -1 24.4000 84.7000 TC 30 24.0329 84.4889 1 9 24
1942269N17087 1942 57 NI BB NOT_NAMED 1942-09-28 21:00:00 TS 24.5816 84.7731 main 0 0 _________PP___ -1 24.7975 84.9023 TC 30 24.4377 84.6869 1 8 25
1942269N17087 1942 57 NI BB NOT_NAMED 1942-09-29 00:00:00 TS 24.9491 84.9610 main 0 0 _________OP___ -1 25.2000 85.1000 TC 30 24.8237 84.8915 1 7 26
1942269N17087 1942 57 NI BB NOT_NAMED 1942-09-29 03:00:00 NR 25.2000 85.1000 main 0 __________O___ -1 TC 25.2000 85.1000 1 6 26

About IBTrACS Database

This database is a web-friendly format of International Best Track Archive for Climate Stewardship (IBTrACS), a global best track data archive curated by NOAA dating back to 1842.

Updated: 2021-12-06